Flight Track Log - Related Links

Times and Time Zones

All times are in EDT time to prevent confusion due to time zone crossing. See the AAY655 flight status page for this flight to view local times or setup timezone preferences in your user account.

Time Position Orientation Groundspeed Altitude Reporting Facility
EDT Latitude Longitude Course Direction KTS MPH feet Rate Location/Type
Wed 08:07:42 PM 43.0934 -78.9821 188° South 173 199 2,200  Level FlightAware ADS-B (CYYZ)
Wed 08:07:45 PM 43.0926 -78.9822 182° South 179 206 2,200 1,200 Level FlightAware ADS-B (CYYZ)
Wed 08:08:02 PM 43.0787 -78.9816 176° South 204 235 2,600 1,500 Climbing FlightAware ADS-B (CYYZ)
Wed 08:08:17 PM 43.0609 -78.9806 178° South 224 258 3,000 1,680 Climbing FlightAware ADS-B (CYYZ)
Wed 08:08:27 PM 43.0497 -78.9822 188° South 241 277 3,300 2,400 Climbing FlightAware ADS-B (CYYZ)
Wed 08:08:42 PM 43.0326 -78.9853 188° South 251 289 4,000 3,290 Climbing FlightAware ADS-B (CYYZ)
Wed 08:08:58 PM 43.0149 -78.9885 188° South 251 289 5,000 3,290 Climbing FlightAware ADS-B (CYYZ)
Wed 08:09:13 PM 42.9976 -78.9918 188° South 258 297 5,700 2,690 Climbing FlightAware ADS-B (CYYZ)
Wed 08:09:27 PM 42.9801 -78.9950 188° South 271 312 6,300 2,483 Climbing FlightAware ADS-B (CYYZ)
Wed 08:09:42 PM 42.9623 -78.9981 188° South 280 322 6,900 2,800 Climbing FlightAware ADS-B (CYYZ)
Wed 08:09:57 PM 42.9406 -79.0016 187° South 285 328 7,700 2,903 Climbing FlightAware ADS-B (CYYZ)
Wed 08:10:13 PM 42.9206 -79.0046 187° South 293 337 8,400 2,903 Climbing FlightAware ADS-B (CYYZ)
Wed 08:10:28 PM 42.8999 -79.0077 187° South 295 339 9,200 3,000 Climbing FlightAware ADS-B (CYYZ)
Wed 08:10:43 PM 42.8793 -79.0111 187° South 300 345 9,900 1,867 Climbing FlightAware ADS-B (CYYZ)
Wed 08:11:13 PM 42.8360 -79.0190 188° South 334 384 10,600 1,525 Climbing FlightAware ADS-B (CYYZ)
Wed 08:11:42 PM 42.7883 -79.0269 187° South 362 417 11,400 2,237 Climbing FlightAware ADS-B (CYYZ)
Wed 08:12:12 PM 42.7367 -79.0344 186° South 370 426 12,800 2,100 Climbing FlightAware ADS-B (CYYZ)
Wed 08:12:42 PM 42.6832 -79.0423 187° South 397 457 13,500 1,869 Climbing FlightAware ADS-B (CYYZ)
Wed 08:13:13 PM 42.6302 -79.0505 187° South 407 468 14,700 2,500 Climbing FlightAware ADS-B (CYYZ)
Wed 08:13:42 PM 42.5742 -79.0591 187° South 411 473 16,000 2,500 Climbing FlightAware ADS-B (CYYZ)
Wed 08:14:13 PM 42.5155 -79.0684 187° South 415 478 17,200 2,400 Climbing FlightAware ADS-B (CYYZ)
Wed 08:14:42 PM 42.4568 -79.0778 187° South 420 483 18,400 2,300 Climbing FlightAware ADS-B (CYYZ)
Wed 08:15:13 PM 42.3991 -79.0871 187° South 424 488 19,500 2,000 Climbing FlightAware ADS-B (CYYZ)
Wed 08:15:42 PM 42.3415 -79.0964 187° South 435 501 20,400 1,886 Climbing FlightAware ADS-B (CYYZ)
Wed 08:16:23 PM 42.2618 -79.1117 192° South 438 504 21,700 1,859 Climbing FlightAware ADS-B (CYYZ)
Wed 08:16:53 PM 42.2038 -79.1323 199° South 436 502 22,600 1,932 Climbing FlightAware ADS-B (CYYZ)
Wed 08:17:22 PM 42.1438 -79.1636 205° Southwest 429 494 23,600 1,800 Climbing FlightAware ADS-B (CYYZ)
Wed 08:17:53 PM 42.0922 -79.1995 211° Southwest 427 491 24,400 1,600 Climbing FlightAware ADS-B (CYYZ)
Wed 08:18:22 PM 42.0403 -79.2420 212° Southwest 427 491 25,200 1,627 Climbing FlightAware ADS-B (CYYZ)
Wed 08:18:52 PM 41.9922 -79.2812 212° Southwest 432 497 26,000 1,500 Climbing FlightAware ADS-B (CYYZ)
Wed 08:19:22 PM 41.9395 -79.3238 212° Southwest 436 502 26,700 1,320 Climbing FlightAware ADS-B (CYYZ)
Wed 08:19:42 PM 41.9026 -79.3493 201° Southwest 457 526 27,100 1,231 Climbing FlightAware ADS-B (CYYZ)
Wed 08:20:01 PM 41.8620 -79.3624 190° South 476 548 27,500 1,224 Climbing FlightAware ADS-B (CYYZ)
Wed 08:20:31 PM 41.7947 -79.3773 190° South 482 555 28,100 984 Climbing FlightAware ADS-B (CYYZ)
Wed 08:21:02 PM 41.7273 -79.3929 190° South 489 563 28,500 1,082 Climbing FlightAware ADS-B (CYYZ)
Wed 08:21:32 PM 41.6676 -79.4069 190° South 493 567 29,200 1,000 Climbing FlightAware ADS-B (CYYZ)
Wed 08:22:02 PM 41.6095 -79.4205 190° South 496 571 29,500 1,200 Climbing FlightAware ADS-B (CYYZ)
Wed 08:22:52 PM 41.4784 -79.4513 190° South 496 571 30,800 1,407 Climbing FlightAware ADS-B (CYYZ)
Wed 08:23:23 PM 41.4082 -79.4705 198° South 486 559 31,400 960 Climbing FlightAware ADS-B (CYYZ)
Wed 08:24:07 PM 41.3280 -79.5134 203° Southwest 474 545 32,000 486 Climbing FlightAware ADS-B (CYYZ)
Wed 08:24:37 PM 41.2647 -79.5488 203° Southwest 473 544 32,000  Level FlightAware ADS-B (CYYZ)
Wed 08:25:04 PM 41.2037 -79.5833 204° Southwest 474 545 32,000  Level FlightAware ADS-B (CYYZ)
Wed 08:25:36 PM 41.1479 -79.6150 204° Southwest 473 544 32,000  Level FlightAware ADS-B (CYYZ)
Wed 08:26:06 PM 41.0819 -79.6524 204° Southwest 472 543 32,000  Level FlightAware ADS-B (CYYZ)
Wed 08:26:31 PM 41.0672 -79.6608 204° Southwest 472 543 32,000 161 Level FlightAware ADS-B (CYYZ)
Wed 08:27:58 PM 40.8600 -79.7791 203° Southwest 471 542 32,300 505 Climbing FlightAware ADS-B (CYYZ)
Wed 08:28:18 PM 40.8128 -79.7980 191° South 487 560 32,900 1,030 Climbing FlightAware ADS-B (CYYZ)
Wed 08:29:37 PM 40.6981 -79.8190 189° South 485 558 34,000 660 Climbing FlightAware ADS-B (CYYZ)
Wed 08:29:58 PM 40.5265 -79.8533 189° South 482 555 34,000  Level FlightAware ADS-B
Wed 08:31:43 PM 40.2946 -79.8989 189° South 482 555 34,000  Level FlightAware ADS-B
Wed 08:32:22 PM 40.2086 -79.9156 188° South 483 556 34,000  Level FlightAware ADS-B
Wed 08:33:03 PM 40.1515 -79.9266 189° South 480 552 34,000 742 Level FlightAware ADS-B
Wed 08:33:59 PM 39.9948 -79.9571 188° South 471 542 35,200 1,212 Climbing FlightAware ADS-B
Wed 08:34:42 PM 39.9041 -79.9746 189° South 463 533 36,000 516 Climbing FlightAware ADS-B
Wed 08:35:32 PM 39.8700 -79.9817 189° South 468 539 36,000  Level Cleveland Center
Wed 08:36:34 PM 39.7419 -80.0053 188° South 465 535 36,000  Level Cleveland Center
Wed 08:37:36 PM 39.6156 -80.0308 189° South 463 533 36,000  Level Cleveland Center
Wed 08:38:13 PM 39.5458 -80.0456 189° South 470 541 36,000  Level Washington Center
Wed 08:39:11 PM 39.4219 -80.0703 189° South 464 534 36,000  Level Washington Center
Wed 08:40:12 PM 39.2939 -80.0944 188° South 464 534 36,000  Level Washington Center
Wed 08:41:12 PM 39.1681 -80.1189 189° South 464 534 36,000 200 Level Washington Center
Wed 08:42:12 PM 39.0442 -80.1406 188° South 464 534 36,400 645 Climbing Washington Center
Wed 08:43:13 PM 38.9033 -80.1719 190° South 464 534 37,300 807 Climbing Washington Center
Wed 08:44:11 PM 38.7772 -80.1961 188° South 469 540 38,000 356 Climbing Washington Center
Wed 08:45:11 PM 38.6639 -80.2181 189° South 469 540 38,000  Level Washington Center
Wed 08:46:12 PM 38.5400 -80.2397 188° South 464 534 38,000  Level Washington Center
Wed 08:47:12 PM 38.4139 -80.2608 187° South 464 534 38,000  Level Washington Center
Wed 08:48:13 PM 38.2900 -80.2850 189° South 464 534 38,000  Level Washington Center
Wed 08:49:11 PM 38.1533 -80.3106 188° South 464 534 38,000  Level Washington Center
Wed 08:50:11 PM 38.0275 -80.3342 188° South 464 534 38,000  Level Washington Center
Wed 08:51:12 PM 37.9014 -80.3581 189° South 464 534 38,000  Level Washington Center
Wed 08:53:07 PM 37.6556 -80.4011 188° South 469 540 38,000  Level Atlanta Center
Wed 08:54:07 PM 37.5311 -80.4225 188° South 463 533 38,000  Level Atlanta Center
Wed 08:55:07 PM 37.4192 -80.4436 189° South 458 527 38,000  Level Atlanta Center
Wed 08:56:07 PM 37.2950 -80.4650 188° South 458 527 38,000  Level Atlanta Center
Wed 08:57:07 PM 37.1744 -80.4858 188° South 458 527 38,000  Level Atlanta Center
Wed 08:58:07 PM 37.0500 -80.5047 187° South 458 527 38,000  Level Atlanta Center
Wed 08:59:07 PM 36.9131 -80.5289 188° South 458 527 38,000  Level Atlanta Center
Wed 09:00:07 PM 36.7928 -80.5522 189° South 458 527 38,000  Level Atlanta Center
Wed 09:01:07 PM 36.6850 -80.5700 188° South 443 510 38,000  Level Atlanta Center
Wed 09:02:07 PM 36.5647 -80.5933 189° South 443 510 38,000  Level Atlanta Center
Wed 09:03:07 PM 36.4400 -80.6117 187° South 448 516 38,000  Level Atlanta Center
Wed 09:04:07 PM 36.3175 -80.6297 187° South 448 516 38,000  Level Atlanta Center
Wed 09:05:07 PM 36.1928 -80.6478 187° South 443 510 38,000  Level Atlanta Center
Wed 09:06:07 PM 36.0725 -80.6658 187° South 443 510 38,000  Level Atlanta Center
Wed 09:07:07 PM 35.9497 -80.6811 186° South 443 510 38,000  Level Atlanta Center
Wed 09:08:07 PM 35.8272 -80.7017 188° South 443 510 38,000  Level Atlanta Center
Wed 09:09:07 PM 35.6922 -80.7197 186° South 443 510 38,000  Level Atlanta Center
Wed 09:10:07 PM 35.5675 -80.7378 187° South 443 510 38,000  Level Atlanta Center
Wed 09:11:07 PM 35.4447 -80.7553 187° South 448 516 38,000  Level Atlanta Center
Wed 09:12:07 PM 35.3200 -80.7731 187° South 448 516 38,000  Level Atlanta Center
Wed 09:13:46 PM 35.1292 -80.7986 186° South 454 522 38,000  Level Jacksonville Center
Wed 09:18:52 PM 34.4884 -80.8868 186° South 38,000  Level FlightAware ADS-B (EFHN)
Wed 09:19:53 PM 34.3648 -80.9037 186° South 440 506 38,000  Level FlightAware ADS-B (EFHN)
Wed 09:20:38 PM 34.2740 -80.9161 186° South 440 506 38,000  Level FlightAware ADS-B (EFHN)
Wed 09:21:10 PM 34.2117 -80.9246 186° South 440 506 38,000  Level FlightAware ADS-B (EFHN)
Wed 09:21:43 PM 34.1435 -80.9340 186° South 439 505 38,000  Level FlightAware ADS-B (EFHN)
Wed 09:22:22 PM 34.0633 -80.9448 186° South 438 504 38,000  Level FlightAware ADS-B (EFHN)
Wed 09:22:55 PM 33.9985 -80.9536 186° South 437 503 38,000  Level FlightAware ADS-B (EFHN)
Wed 09:23:25 PM 33.9370 -80.9619 186° South 438 504 38,000  Level FlightAware ADS-B (EFHN)
Wed 09:24:10 PM 33.8463 -80.9741 186° South 438 504 38,000  Level FlightAware ADS-B (EFHN)
Wed 09:24:57 PM 33.7517 -80.9869 186° South 439 505 38,000  Level FlightAware ADS-B (EFHN)
Wed 09:25:35 PM 33.6818 -80.9963 186° South 439 505 38,000  Level FlightAware ADS-B (EFHN)
Wed 09:26:46 PM 33.5367 -81.0186 186° South 442 509 38,000  Level Jacksonville Center
Wed 09:27:46 PM 33.4158 -81.0336 186° South 442 509 38,000 -50 Level Jacksonville Center
Wed 09:28:46 PM 33.2969 -81.0511 187° South 442 509 37,900  Descending Jacksonville Center
Wed 09:29:46 PM 33.1783 -81.0661 186° South 442 509 38,000 50 Climbing Jacksonville Center
Wed 09:30:46 PM 33.0553 -81.0783 185° South 442 509 38,000  Level Jacksonville Center
Wed 09:31:46 PM 32.9322 -81.0783 180° South 442 509 38,000  Level Jacksonville Center
Wed 09:32:46 PM 32.8111 -81.0808 181° South 442 509 38,000  Level Jacksonville Center
Wed 09:33:46 PM 32.6900 -81.0808 180° South 437 503 38,000  Level Jacksonville Center
Wed 09:34:46 PM 32.5817 -81.0831 181° South 437 503 38,000  Level Jacksonville Center
Wed 09:35:46 PM 32.4481 -81.0856 181° South 437 503 38,000  Level Jacksonville Center
Wed 09:36:46 PM 32.3269 -81.0831 179° South 438 504 38,000 -50 Level Jacksonville Center
Wed 09:37:46 PM 32.2078 -81.0831 180° South 433 498 37,900 -50 Descending Jacksonville Center
Wed 09:38:46 PM 32.0869 -81.0878 182° South 433 498 37,900 50 Level Jacksonville Center
Wed 09:39:46 PM 31.9658 -81.0853 179° South 433 498 38,000 50 Climbing Jacksonville Center
Wed 09:40:46 PM 31.8594 -81.0900 182° South 438 504 38,000  Level Jacksonville Center
Wed 09:41:46 PM 31.7217 -81.0900 180° South 443 510 38,000  Level Jacksonville Center
Wed 09:42:46 PM 31.6108 -81.0922 181° South 437 503 38,000  Level Jacksonville Center
Wed 09:43:46 PM 31.4772 -81.0925 180° South 438 504 38,000  Level Jacksonville Center
Wed 09:44:46 PM 31.3561 -81.0922 180° South 438 504 38,000 -298 Level Jacksonville Center
Wed 09:45:47 PM 31.2308 -81.0922 180° South 444 511 37,400 -700 Descending Jacksonville Center
Wed 09:46:46 PM 31.1078 -81.0969 182° South 437 503 36,600 -706 Descending Jacksonville Center
Wed 09:47:46 PM 30.9867 -81.0994 181° South 437 503 36,000 -450 Descending Jacksonville Center
Wed 09:48:46 PM 30.8614 -81.0994 180° South 437 503 35,700 -1,650 Descending Jacksonville Center
Wed 09:49:46 PM 30.7361 -81.0992 180° South 437 503 32,700 -2,500 Descending Jacksonville Center
Wed 09:50:46 PM 30.6172 -81.0992 180° South 437 503 30,700 -2,050 Descending Jacksonville Center
Wed 09:51:46 PM 30.5025 -81.1036 182° South 431 496 28,600 -1,400 Descending Jacksonville Center
Wed 09:52:46 PM 30.3833 -81.1033 180° South 426 490 27,900 -600 Descending Jacksonville Center
Wed 09:53:46 PM 30.2664 -81.1033 180° South 426 490 27,400 -2,050 Descending Jacksonville Center
Wed 09:54:46 PM 30.1456 -81.1056 181° South 426 490 23,800 -3,124 Descending Jacksonville Center
Wed 09:55:47 PM 30.0244 -81.1078 181° South 426 490 21,100 -2,600 Descending Jacksonville Center
Wed 09:56:46 PM 29.9139 -81.1097 181° South 419 482 18,600 -2,483 Descending Jacksonville Center
Wed 09:57:14 PM 29.8594 -81.1108 181° South 402 463 17,500 -1,592 Descending Jacksonville Center
Wed 10:02:59 PM 29.2788 -81.1333 187° South 290 334 8,700 -1,516 Descending FlightAware ADS-B
Wed 10:03:18 PM 29.2538 -81.1369 187° South 288 331 8,300 -1,347 Descending FlightAware ADS-B
Wed 10:03:48 PM 29.2153 -81.1426 188° South 284 327 7,600 -1,412 Descending FlightAware ADS-B
Wed 10:04:09 PM 29.1873 -81.1469 187° South 278 320 7,100 -1,500 Descending FlightAware ADS-B
Wed 10:04:28 PM 29.1628 -81.1506 188° South 277 319 6,600 -1,469 Descending FlightAware ADS-B
Wed 10:04:58 PM 29.1303 -81.1555 188° South 278 320 5,900 -1,424 Descending FlightAware ADS-B
Wed 10:05:27 PM 29.0920 -81.1613 188° South 277 319 5,200 -1,200 Descending FlightAware ADS-B
Wed 10:05:58 PM 29.0480 -81.1684 191° South 270 311 4,700 -692 Descending FlightAware ADS-B
Wed 10:06:19 PM 29.0233 -81.1740 191° South 271 312 4,600 -150 Descending FlightAware ADS-B
Wed 10:06:38 PM 29.0009 -81.1789 191° South 270 311 4,600  Level FlightAware ADS-B
Wed 10:07:07 PM 28.9676 -81.1864 195° South 251 289 4,600 -367 Level FlightAware ADS-B
Wed 10:07:27 PM 28.9440 -81.1982 212° Southwest 239 275 4,300 -1,000 Descending FlightAware ADS-B
Wed 10:07:43 PM 28.9294 -81.2099 218° Southwest 224 258 4,000 -774 Descending FlightAware ADS-B
Wed 10:07:58 PM 28.9176 -81.2203 218° Southwest 217 250 3,900 -706 Descending FlightAware ADS-B
Wed 10:08:17 PM 28.9036 -81.2339 223° Southwest 205 236 3,600 -1,263 Descending FlightAware ADS-B
Wed 10:08:36 PM 28.8911 -81.2477 225° Southwest 201 231 3,100 -1,440 Descending FlightAware ADS-B
Wed 10:09:07 PM 28.8703 -81.2707 224° Southwest 199 229 2,400 -1,294 Descending FlightAware ADS-B
Wed 10:09:27 PM 28.8572 -81.2850 224° Southwest 197 227 2,000 -808 Descending FlightAware ADS-B
Wed 10:10:51 PM 28.7974 -81.3137 160° South 137 158 1,000 -759 Descending FlightAware ADS-B (KSFB)
Wed 10:10:54 PM 28.7967 -81.3134 153° Southeast 134 154 900 -900 Descending FlightAware ADS-B (KSFB)
Wed 10:11:31 PM 28.7820 -81.2947 106° East 124 143 400 -811 Descending FlightAware ADS-B (KSFB)
Wed 10:18:00 PM 28.7667 -81.2333 199° South  Level FlightAware Approximate
Wed 10:19:00 PM 28.7770 -81.2349 199° South  Level Estimated
Wed 10:20:00 PM 28.7770 -81.2349 199° South  Level Estimated
Wed 10:21:00 PM 28.7770 -81.2349 199° South  Level Estimated

Login

Don't have an account? Register now (free) for customized features, flight alerts, and more!